createdAt,value
2022-09-06T00:00:01.873Z,21.1
2022-09-06T00:05:01.996Z,21.1
2022-09-06T00:10:02.196Z,21.1
2022-09-06T00:15:02.413Z,21.1
2022-09-06T00:20:02.460Z,21.1
2022-09-06T00:25:02.617Z,21.1
2022-09-06T00:30:01.745Z,21.1
2022-09-06T00:35:01.886Z,21.1
2022-09-06T00:40:02.128Z,21.1
2022-09-06T00:45:02.171Z,21.1
2022-09-06T00:50:03.216Z,21.1
2022-09-06T00:55:01.601Z,21.1
2022-09-06T01:00:01.841Z,21.1
2022-09-06T01:05:02.674Z,21.1
2022-09-06T01:10:02.079Z,21.1
2022-09-06T01:15:02.272Z,21.1
2022-09-06T01:20:02.375Z,21.1
2022-09-06T01:25:02.498Z,21.1
2022-09-06T01:30:01.736Z,21.1
2022-09-06T01:35:02.560Z,21.1
2022-09-06T01:40:02.005Z,21.1
2022-09-06T01:45:02.418Z,21.1
2022-09-06T01:50:02.230Z,21.1
2022-09-06T01:55:02.371Z,21.1
2022-09-06T02:00:02.570Z,21.1
2022-09-06T02:05:01.636Z,21.1
2022-09-06T02:10:01.838Z,21.1
2022-09-06T02:15:01.975Z,21.1
2022-09-06T02:20:02.103Z,21.1
2022-09-06T02:25:02.309Z,21.1
2022-09-06T02:30:02.441Z,21.1
2022-09-06T02:35:03.663Z,21.1
2022-09-06T02:40:01.753Z,21.1
2022-09-06T02:45:02.245Z,21.1
2022-09-06T02:50:02.217Z,21.1
2022-09-06T02:55:02.321Z,21.1
2022-09-06T03:00:02.982Z,21.1
2022-09-06T03:05:04.048Z,21.1
2022-09-06T03:10:02.784Z,21.1
2022-09-06T03:15:02.370Z,21.1
2022-09-06T03:20:02.105Z,21.1
2022-09-06T03:25:02.950Z,21.1
2022-09-06T03:30:02.593Z,21.1
2022-09-06T03:35:03.099Z,21.1
2022-09-06T03:40:02.775Z,21.1
2022-09-06T03:45:01.896Z,21.1
2022-09-06T03:50:01.926Z,21.1
2022-09-06T03:55:01.935Z,21.1
2022-09-06T04:00:02.150Z,21.1
2022-09-06T04:05:03.024Z,21.1
2022-09-06T04:10:02.490Z,21.1
2022-09-06T04:15:02.664Z,21.1
2022-09-06T04:20:01.660Z,21.1
2022-09-06T04:25:01.989Z,21.1
2022-09-06T04:30:01.948Z,21.1
2022-09-06T04:35:02.862Z,21.1
2022-09-06T04:40:02.351Z,21.1
2022-09-06T04:45:02.819Z,21.1
2022-09-06T04:50:03.338Z,21.1
2022-09-06T04:55:01.664Z,21.1
2022-09-06T05:00:02.109Z,21.1
2022-09-06T05:05:02.750Z,21.1
2022-09-06T05:10:02.933Z,21.1
2022-09-06T05:15:02.416Z,21.1
2022-09-06T05:20:02.510Z,21.1
2022-09-06T05:25:02.617Z,21.1
2022-09-06T05:30:01.799Z,21.1
2022-09-06T05:35:02.706Z,21.1
2022-09-06T05:40:02.985Z,21.1
2022-09-06T05:45:02.455Z,21.1
2022-09-06T05:50:02.052Z,21.1
2022-09-06T05:55:02.180Z,21.1
2022-09-06T06:00:02.385Z,21.1
2022-09-06T06:05:03.211Z,21.1
2022-09-06T06:10:03.312Z,15.7
2022-09-06T06:15:02.677Z,15.7
2022-09-06T06:20:01.898Z,15.8
2022-09-06T06:25:02.329Z,15.9
2022-09-06T06:30:02.513Z,16
2022-09-06T06:35:03.672Z,16
2022-09-06T06:40:02.554Z,16
2022-09-06T06:45:03.009Z,16.1
2022-09-06T06:50:02.203Z,16.3
2022-09-06T06:55:02.302Z,16.5
2022-09-06T07:00:03.475Z,16.7
2022-09-06T07:15:03.289Z,16.7
2022-09-06T07:25:01.682Z,16.7
2022-09-06T07:30:01.933Z,16.8
2022-09-06T07:35:02.858Z,17.1
2022-09-06T07:40:03.086Z,17
2022-09-06T07:45:03.181Z,17.1
2022-09-06T07:55:02.044Z,17.6
2022-09-06T08:00:02.438Z,17.4
2022-09-06T08:05:03.773Z,17.4
2022-09-06T08:10:03.528Z,17.4
2022-09-06T08:15:03.008Z,17.6
2022-09-06T08:20:01.839Z,17.5
2022-09-06T08:25:02.071Z,17.6
2022-09-06T08:30:02.365Z,17.7
2022-09-06T08:35:03.363Z,17.9
2022-09-06T08:40:03.497Z,18
2022-09-06T08:45:02.592Z,17.9
2022-09-06T08:50:01.852Z,18.1
2022-09-06T08:55:01.925Z,18.4
2022-09-06T09:00:02.228Z,18.7
2022-09-06T09:05:03.025Z,18.5
2022-09-06T09:10:03.277Z,18.6
2022-09-06T09:15:03.488Z,18.5
2022-09-06T09:20:01.753Z,18.9
2022-09-06T09:25:01.873Z,19.4
2022-09-06T09:35:03.017Z,19.6
2022-09-06T09:40:03.281Z,19.8
2022-09-06T09:45:03.575Z,20.1
2022-09-06T09:50:01.731Z,20.2
2022-09-06T09:55:01.864Z,20
2022-09-06T10:00:02.572Z,20.2
2022-09-06T10:05:02.859Z,20.6
2022-09-06T10:10:02.986Z,20.6
2022-09-06T10:15:06.830Z,20.6
2022-09-06T10:20:02.476Z,20.8
2022-09-06T10:25:02.667Z,20.7
2022-09-06T10:30:01.838Z,20.8
2022-09-06T10:35:02.642Z,20.8
2022-09-06T10:40:02.881Z,20.9
2022-09-06T10:45:03.126Z,21.2
2022-09-06T10:50:02.248Z,21.3
2022-09-06T10:55:02.317Z,21.5
2022-09-06T11:00:02.466Z,21.6
2022-09-06T11:10:03.051Z,21.7
2022-09-06T11:15:03.329Z,21.6
2022-09-06T11:20:02.655Z,21.6
2022-09-06T11:25:01.705Z,21.5
2022-09-06T11:30:02.432Z,21.5
2022-09-06T11:35:02.846Z,22.1
2022-09-06T11:45:02.750Z,22.3
2022-09-06T11:50:02.037Z,22.4
2022-09-06T11:55:02.043Z,22.5
2022-09-06T12:00:02.307Z,22.3
2022-09-06T12:05:03.144Z,22.1
2022-09-06T12:10:03.337Z,22.1
2022-09-06T12:15:02.613Z,22
2022-09-06T12:20:01.913Z,22
2022-09-06T12:25:02.053Z,21.9
2022-09-06T12:30:02.231Z,21.7
2022-09-06T12:40:03.299Z,21.9
2022-09-06T12:45:02.572Z,22
2022-09-06T12:50:01.826Z,22
2022-09-06T12:55:01.929Z,22
2022-09-06T13:00:02.981Z,21.9
2022-09-06T13:05:03.397Z,21.9
2022-09-06T13:10:03.033Z,21.8
2022-09-06T13:15:03.233Z,21.7
2022-09-06T13:20:02.667Z,21.7
2022-09-06T13:25:01.709Z,21.7
2022-09-06T13:30:01.969Z,21.8
2022-09-06T13:35:02.782Z,21.7
2022-09-06T13:40:03.026Z,21.7
2022-09-06T13:45:03.208Z,21.7
2022-09-06T13:50:02.452Z,21.8
2022-09-06T13:55:02.618Z,21.7
2022-09-06T14:00:01.656Z,21.7
2022-09-06T14:05:02.610Z,21.7
2022-09-06T14:10:02.785Z,21.7
2022-09-06T14:15:03.037Z,21.7
2022-09-06T14:20:02.332Z,21.6
2022-09-06T14:25:02.439Z,21.5
2022-09-06T14:30:03.026Z,21.4
2022-09-06T14:35:02.559Z,21.4
2022-09-06T14:40:02.642Z,21.5
2022-09-06T14:45:02.935Z,21.4
2022-09-06T14:50:02.586Z,21.3
2022-09-06T14:55:02.370Z,21.3
2022-09-06T15:00:02.604Z,21.2
2022-09-06T15:05:02.431Z,21.1
2022-09-06T15:10:02.644Z,21.1
2022-09-06T15:15:02.826Z,21.1
2022-09-06T15:20:02.119Z,21.2
2022-09-06T15:25:02.260Z,21.2
2022-09-06T15:30:02.453Z,21.2
2022-09-06T15:35:04.753Z,21.2
2022-09-06T15:40:02.591Z,21.2
2022-09-06T15:45:02.761Z,21.2
2022-09-06T15:50:02.017Z,21.3
2022-09-06T15:55:02.123Z,21.3
2022-09-06T16:00:03.084Z,21.5
2022-09-06T16:05:03.224Z,21.5
2022-09-06T16:10:03.587Z,21.6
2022-09-06T16:15:02.483Z,21.5
2022-09-06T16:20:01.829Z,21.5
2022-09-06T16:25:01.962Z,21.4
2022-09-06T16:30:02.209Z,21.3
2022-09-06T16:35:03.090Z,21.3
2022-09-06T16:40:03.308Z,21.1
2022-09-06T16:45:02.593Z,20.9
2022-09-06T16:50:01.897Z,20.8
2022-09-06T16:55:02.071Z,20.7
2022-09-06T17:00:02.432Z,20.6
2022-09-06T17:05:03.138Z,20.6
2022-09-06T17:10:03.300Z,20.6
2022-09-06T17:15:02.589Z,20.4
2022-09-06T17:20:01.953Z,20.4
2022-09-06T17:25:02.780Z,20.4
2022-09-06T17:30:02.307Z,20.4
2022-09-06T17:35:03.110Z,20.3
2022-09-06T17:40:03.362Z,20.3
2022-09-06T17:45:03.197Z,20.2
2022-09-06T17:50:02.739Z,20.2
2022-09-06T17:55:02.628Z,20.1
2022-09-06T18:00:01.866Z,20.1
2022-09-06T18:05:02.816Z,20
2022-09-06T18:10:03.045Z,20
2022-09-06T18:15:03.413Z,19.9
2022-09-06T18:20:02.443Z,19.9
2022-09-06T18:25:02.465Z,19.9
2022-09-06T18:30:02.718Z,19.9
2022-09-06T18:35:02.754Z,19.9
2022-09-06T18:40:02.783Z,19.9
2022-09-06T18:45:02.965Z,19.9
2022-09-06T18:50:02.156Z,19.9
2022-09-06T18:55:02.764Z,19.9
2022-09-06T19:00:03.291Z,19.9
2022-09-06T19:05:03.408Z,19.9
2022-09-06T19:10:02.568Z,19.9
2022-09-06T19:15:03.244Z,19.9
2022-09-06T19:20:02.316Z,19.9
2022-09-06T19:25:02.470Z,19.9
2022-09-06T19:30:02.621Z,19.9
2022-09-06T19:35:02.647Z,19.9
2022-09-06T19:40:02.786Z,19.9
2022-09-06T19:45:03.049Z,19.9
2022-09-06T19:50:02.270Z,19.9
2022-09-06T19:55:02.238Z,19.9
2022-09-06T20:00:03.245Z,19.9
2022-09-06T20:05:03.264Z,19.9
2022-09-06T20:10:02.474Z,19.9
2022-09-06T20:15:02.764Z,19.9
2022-09-06T20:20:02.010Z,19.9
2022-09-06T20:25:02.382Z,19.9
2022-09-06T20:30:03.162Z,19.9
2022-09-06T20:35:03.219Z,19.9
2022-09-06T20:40:02.449Z,19.9
2022-09-06T20:45:03.006Z,19.9
2022-09-06T20:50:02.241Z,19.9
2022-09-06T20:55:02.379Z,19.9
2022-09-06T21:00:02.662Z,19.9
2022-09-06T21:05:02.476Z,19.9
2022-09-06T21:10:02.630Z,19.9
2022-09-06T21:15:02.952Z,19.9
2022-09-06T21:20:02.255Z,19.9
2022-09-06T21:25:02.538Z,19.9
2022-09-06T21:30:02.631Z,19.9
2022-09-06T21:35:02.527Z,19.9
2022-09-06T21:40:02.849Z,19.9
2022-09-06T21:45:03.244Z,19.9
2022-09-06T21:50:03.166Z,19.9
2022-09-06T21:55:02.019Z,19.9
2022-09-06T22:00:02.365Z,19.9
2022-09-06T22:05:02.449Z,19.9
2022-09-06T22:10:02.461Z,19.9
2022-09-06T22:15:01.609Z,19.9
2022-09-06T22:20:02.595Z,19.9
2022-09-06T22:25:01.765Z,19.9
2022-09-06T22:30:01.869Z,19.9
2022-09-06T22:35:02.127Z,19.9
2022-09-06T22:40:02.629Z,19.9
2022-09-06T22:45:01.814Z,19.9
2022-09-06T22:50:02.591Z,19.9
2022-09-06T22:55:02.657Z,19.9
2022-09-06T23:00:03.281Z,19.9
2022-09-06T23:05:03.250Z,19.9
2022-09-06T23:10:03.127Z,19.9
2022-09-06T23:15:03.206Z,19.9
2022-09-06T23:20:02.629Z,19.9
2022-09-06T23:25:01.853Z,19.9
2022-09-06T23:30:02.011Z,19.9
2022-09-06T23:35:02.126Z,19.9
2022-09-06T23:40:04.718Z,19.9
2022-09-06T23:45:02.548Z,19.9
2022-09-06T23:50:02.593Z,19.9
2022-09-06T23:55:01.801Z,19.9
